sensor_id;sensor_type;location;lat;lon;timestamp;P1;durP1;ratioP1;P2;durP2;ratioP2
4748;SDS011;2388;53.582;9.962;2023-01-25T00:01:33;16.20;;;11.33;;
4748;SDS011;2388;53.582;9.962;2023-01-25T00:03:59;17.17;;;10.97;;
4748;SDS011;2388;53.582;9.962;2023-01-25T00:06:24;13.00;;;10.90;;
4748;SDS011;2388;53.582;9.962;2023-01-25T00:08:51;18.55;;;11.27;;
4748;SDS011;2388;53.582;9.962;2023-01-25T00:11:17;17.60;;;11.60;;
4748;SDS011;2388;53.582;9.962;2023-01-25T00:13:43;18.45;;;12.25;;
4748;SDS011;2388;53.582;9.962;2023-01-25T00:16:09;24.90;;;12.80;;
4748;SDS011;2388;53.582;9.962;2023-01-25T00:18:35;17.43;;;11.73;;
4748;SDS011;2388;53.582;9.962;2023-01-25T00:21:11;22.40;;;12.20;;
4748;SDS011;2388;53.582;9.962;2023-01-25T00:23:37;20.33;;;11.20;;
4748;SDS011;2388;53.582;9.962;2023-01-25T00:26:03;19.90;;;12.13;;
4748;SDS011;2388;53.582;9.962;2023-01-25T00:28:28;17.53;;;12.03;;
4748;SDS011;2388;53.582;9.962;2023-01-25T00:30:57;19.43;;;13.13;;
4748;SDS011;2388;53.582;9.962;2023-01-25T00:33:37;18.30;;;11.70;;
4748;SDS011;2388;53.582;9.962;2023-01-25T00:36:31;15.80;;;11.32;;
4748;SDS011;2388;53.582;9.962;2023-01-25T00:39:03;17.85;;;12.15;;
4748;SDS011;2388;53.582;9.962;2023-01-25T00:41:29;15.48;;;11.00;;
4748;SDS011;2388;53.582;9.962;2023-01-25T00:43:55;21.73;;;11.97;;
4748;SDS011;2388;53.582;9.962;2023-01-25T00:46:20;21.30;;;12.52;;
4748;SDS011;2388;53.582;9.962;2023-01-25T00:48:46;20.47;;;13.10;;
4748;SDS011;2388;53.582;9.962;2023-01-25T00:51:12;21.67;;;13.50;;
4748;SDS011;2388;53.582;9.962;2023-01-25T00:53:38;20.17;;;13.00;;
4748;SDS011;2388;53.582;9.962;2023-01-25T00:56:03;16.40;;;12.73;;
4748;SDS011;2388;53.582;9.962;2023-01-25T00:58:29;23.43;;;13.10;;
4748;SDS011;2388;53.582;9.962;2023-01-25T01:00:55;21.10;;;12.70;;
4748;SDS011;2388;53.582;9.962;2023-01-25T01:03:21;22.08;;;13.65;;
4748;SDS011;2388;53.582;9.962;2023-01-25T01:05:47;18.73;;;12.33;;
4748;SDS011;2388;53.582;9.962;2023-01-25T01:08:13;20.27;;;13.60;;
4748;SDS011;2388;53.582;9.962;2023-01-25T01:10:39;19.10;;;12.93;;
4748;SDS011;2388;53.582;9.962;2023-01-25T01:13:05;16.53;;;12.00;;
4748;SDS011;2388;53.582;9.962;2023-01-25T01:15:34;17.95;;;12.57;;
4748;SDS011;2388;53.582;9.962;2023-01-25T01:18:01;24.48;;;13.20;;
4748;SDS011;2388;53.582;9.962;2023-01-25T01:20:26;19.83;;;12.40;;
4748;SDS011;2388;53.582;9.962;2023-01-25T01:22:52;26.83;;;13.40;;
4748;SDS011;2388;53.582;9.962;2023-01-25T01:25:19;21.50;;;13.60;;
4748;SDS011;2388;53.582;9.962;2023-01-25T01:27:45;19.27;;;12.50;;
4748;SDS011;2388;53.582;9.962;2023-01-25T01:30:10;25.30;;;13.40;;
4748;SDS011;2388;53.582;9.962;2023-01-25T01:32:36;23.73;;;13.27;;
4748;SDS011;2388;53.582;9.962;2023-01-25T01:35:01;19.33;;;12.63;;
4748;SDS011;2388;53.582;9.962;2023-01-25T01:37:27;20.70;;;11.70;;
4748;SDS011;2388;53.582;9.962;2023-01-25T01:39:52;18.67;;;11.70;;
4748;SDS011;2388;53.582;9.962;2023-01-25T01:42:18;17.23;;;12.23;;
4748;SDS011;2388;53.582;9.962;2023-01-25T01:47:19;19.63;;;11.82;;
4748;SDS011;2388;53.582;9.962;2023-01-25T01:50:36;20.30;;;12.23;;
4748;SDS011;2388;53.582;9.962;2023-01-25T01:52:42;17.80;;;10.82;;
4748;SDS011;2388;53.582;9.962;2023-01-25T01:55:09;16.93;;;11.43;;
4748;SDS011;2388;53.582;9.962;2023-01-25T01:57:40;13.45;;;10.07;;
4748;SDS011;2388;53.582;9.962;2023-01-25T02:00:18;15.10;;;11.00;;
4748;SDS011;2388;53.582;9.962;2023-01-25T02:02:47;14.75;;;10.27;;
4748;SDS011;2388;53.582;9.962;2023-01-25T02:05:19;13.82;;;10.13;;
4748;SDS011;2388;53.582;9.962;2023-01-25T02:07:56;16.00;;;10.57;;
4748;SDS011;2388;53.582;9.962;2023-01-25T02:10:24;14.48;;;9.50;;
4748;SDS011;2388;53.582;9.962;2023-01-25T02:12:51;14.10;;;10.52;;
4748;SDS011;2388;53.582;9.962;2023-01-25T02:15:19;17.00;;;10.45;;
4748;SDS011;2388;53.582;9.962;2023-01-25T02:17:44;15.47;;;10.63;;
4748;SDS011;2388;53.582;9.962;2023-01-25T02:22:44;14.27;;;9.70;;
4748;SDS011;2388;53.582;9.962;2023-01-25T02:25:17;14.07;;;10.18;;
4748;SDS011;2388;53.582;9.962;2023-01-25T02:27:44;14.60;;;9.43;;
4748;SDS011;2388;53.582;9.962;2023-01-25T02:30:15;16.17;;;10.38;;
4748;SDS011;2388;53.582;9.962;2023-01-25T02:32:40;14.90;;;9.80;;
4748;SDS011;2388;53.582;9.962;2023-01-25T02:35:06;14.87;;;10.00;;
4748;SDS011;2388;53.582;9.962;2023-01-25T02:37:32;25.40;;;10.15;;
4748;SDS011;2388;53.582;9.962;2023-01-25T02:39:57;16.30;;;9.87;;
4748;SDS011;2388;53.582;9.962;2023-01-25T02:42:23;15.60;;;9.07;;
4748;SDS011;2388;53.582;9.962;2023-01-25T02:44:48;13.93;;;8.50;;
4748;SDS011;2388;53.582;9.962;2023-01-25T02:47:15;13.00;;;8.38;;
4748;SDS011;2388;53.582;9.962;2023-01-25T02:49:40;13.67;;;8.77;;
4748;SDS011;2388;53.582;9.962;2023-01-25T02:52:06;15.67;;;9.63;;
4748;SDS011;2388;53.582;9.962;2023-01-25T02:54:31;14.57;;;9.20;;
4748;SDS011;2388;53.582;9.962;2023-01-25T02:56:57;13.40;;;9.20;;
4748;SDS011;2388;53.582;9.962;2023-01-25T02:59:22;12.93;;;9.27;;
4748;SDS011;2388;53.582;9.962;2023-01-25T03:01:48;17.13;;;10.20;;
4748;SDS011;2388;53.582;9.962;2023-01-25T03:04:14;14.93;;;8.80;;
4748;SDS011;2388;53.582;9.962;2023-01-25T03:06:40;13.87;;;9.10;;
4748;SDS011;2388;53.582;9.962;2023-01-25T03:09:06;17.10;;;9.27;;
4748;SDS011;2388;53.582;9.962;2023-01-25T03:11:33;15.05;;;10.07;;
4748;SDS011;2388;53.582;9.962;2023-01-25T03:13:59;15.50;;;10.60;;
4748;SDS011;2388;53.582;9.962;2023-01-25T03:16:25;13.67;;;9.77;;
4748;SDS011;2388;53.582;9.962;2023-01-25T03:18:53;17.60;;;10.33;;
4748;SDS011;2388;53.582;9.962;2023-01-25T03:21:19;15.75;;;9.52;;
4748;SDS011;2388;53.582;9.962;2023-01-25T03:23:46;18.70;;;10.77;;
4748;SDS011;2388;53.582;9.962;2023-01-25T03:26:18;17.13;;;10.68;;
4748;SDS011;2388;53.582;9.962;2023-01-25T03:28:45;16.75;;;10.55;;
4748;SDS011;2388;53.582;9.962;2023-01-25T03:31:11;19.87;;;11.57;;
4748;SDS011;2388;53.582;9.962;2023-01-25T03:33:38;16.08;;;9.98;;
4748;SDS011;2388;53.582;9.962;2023-01-25T03:36:04;15.37;;;9.80;;
4748;SDS011;2388;53.582;9.962;2023-01-25T03:38:30;15.98;;;10.07;;
4748;SDS011;2388;53.582;9.962;2023-01-25T03:40:56;16.40;;;9.45;;
4748;SDS011;2388;53.582;9.962;2023-01-25T03:43:22;20.93;;;10.40;;
4748;SDS011;2388;53.582;9.962;2023-01-25T03:45:51;17.23;;;10.33;;
4748;SDS011;2388;53.582;9.962;2023-01-25T03:48:17;16.95;;;10.80;;
4748;SDS011;2388;53.582;9.962;2023-01-25T03:50:47;15.53;;;10.60;;
4748;SDS011;2388;53.582;9.962;2023-01-25T03:53:17;16.38;;;10.25;;
4748;SDS011;2388;53.582;9.962;2023-01-25T03:56:02;20.30;;;10.65;;
4748;SDS011;2388;53.582;9.962;2023-01-25T03:58:32;19.55;;;11.55;;
4748;SDS011;2388;53.582;9.962;2023-01-25T04:00:58;18.97;;;11.73;;
4748;SDS011;2388;53.582;9.962;2023-01-25T04:03:26;16.83;;;10.95;;
4748;SDS011;2388;53.582;9.962;2023-01-25T04:05:52;20.63;;;10.68;;
4748;SDS011;2388;53.582;9.962;2023-01-25T04:08:19;21.98;;;11.73;;
4748;SDS011;2388;53.582;9.962;2023-01-25T04:10:49;21.40;;;11.43;;
4748;SDS011;2388;53.582;9.962;2023-01-25T04:13:18;19.48;;;11.30;;
4748;SDS011;2388;53.582;9.962;2023-01-25T04:15:45;18.45;;;11.00;;
4748;SDS011;2388;53.582;9.962;2023-01-25T04:18:10;21.53;;;10.80;;
4748;SDS011;2388;53.582;9.962;2023-01-25T04:20:36;22.10;;;11.53;;
4748;SDS011;2388;53.582;9.962;2023-01-25T04:23:01;23.83;;;12.57;;
4748;SDS011;2388;53.582;9.962;2023-01-25T04:25:27;21.23;;;11.53;;
4748;SDS011;2388;53.582;9.962;2023-01-25T04:27:52;20.50;;;12.10;;
4748;SDS011;2388;53.582;9.962;2023-01-25T04:30:18;17.70;;;11.27;;
4748;SDS011;2388;53.582;9.962;2023-01-25T04:32:43;23.43;;;12.40;;
4748;SDS011;2388;53.582;9.962;2023-01-25T04:35:09;18.87;;;11.50;;
4748;SDS011;2388;53.582;9.962;2023-01-25T04:37:34;21.80;;;11.70;;
4748;SDS011;2388;53.582;9.962;2023-01-25T04:40:00;15.93;;;10.90;;
4748;SDS011;2388;53.582;9.962;2023-01-25T04:42:25;14.77;;;9.43;;
4748;SDS011;2388;53.582;9.962;2023-01-25T04:44:51;13.80;;;9.33;;
4748;SDS011;2388;53.582;9.962;2023-01-25T04:47:16;17.37;;;9.30;;
4748;SDS011;2388;53.582;9.962;2023-01-25T04:49:42;16.57;;;10.03;;
4748;SDS011;2388;53.582;9.962;2023-01-25T04:52:07;13.30;;;9.60;;
4748;SDS011;2388;53.582;9.962;2023-01-25T04:54:33;14.57;;;10.27;;
4748;SDS011;2388;53.582;9.962;2023-01-25T04:56:58;12.13;;;9.27;;
4748;SDS011;2388;53.582;9.962;2023-01-25T04:59:24;16.73;;;11.10;;
4748;SDS011;2388;53.582;9.962;2023-01-25T05:01:49;19.60;;;10.40;;
4748;SDS011;2388;53.582;9.962;2023-01-25T05:04:15;13.87;;;10.00;;
4748;SDS011;2388;53.582;9.962;2023-01-25T05:06:40;15.33;;;9.87;;
4748;SDS011;2388;53.582;9.962;2023-01-25T05:09:06;11.20;;;8.60;;
4748;SDS011;2388;53.582;9.962;2023-01-25T05:11:33;12.32;;;9.70;;
4748;SDS011;2388;53.582;9.962;2023-01-25T05:13:59;13.70;;;9.63;;
4748;SDS011;2388;53.582;9.962;2023-01-25T05:16:24;14.07;;;9.07;;
4748;SDS011;2388;53.582;9.962;2023-01-25T05:18:49;13.07;;;9.20;;
4748;SDS011;2388;53.582;9.962;2023-01-25T05:21:15;13.47;;;9.80;;
4748;SDS011;2388;53.582;9.962;2023-01-25T05:23:59;11.82;;;10.00;;
4748;SDS011;2388;53.582;9.962;2023-01-25T05:26:26;12.77;;;9.60;;
4748;SDS011;2388;53.582;9.962;2023-01-25T05:29:10;14.95;;;10.27;;
4748;SDS011;2388;53.582;9.962;2023-01-25T05:31:35;13.77;;;10.53;;
4748;SDS011;2388;53.582;9.962;2023-01-25T05:34:01;14.47;;;11.17;;
4748;SDS011;2388;53.582;9.962;2023-01-25T05:36:26;14.70;;;10.67;;
4748;SDS011;2388;53.582;9.962;2023-01-25T05:38:52;15.57;;;11.17;;
4748;SDS011;2388;53.582;9.962;2023-01-25T05:41:17;15.87;;;11.00;;
4748;SDS011;2388;53.582;9.962;2023-01-25T05:43:43;14.83;;;11.30;;
4748;SDS011;2388;53.582;9.962;2023-01-25T05:46:11;20.30;;;11.52;;
4748;SDS011;2388;53.582;9.962;2023-01-25T05:48:37;19.37;;;11.10;;
4748;SDS011;2388;53.582;9.962;2023-01-25T05:51:03;14.50;;;9.57;;
4748;SDS011;2388;53.582;9.962;2023-01-25T05:53:28;14.17;;;10.13;;
4748;SDS011;2388;53.582;9.962;2023-01-25T05:55:54;16.47;;;10.90;;
4748;SDS011;2388;53.582;9.962;2023-01-25T05:58:19;15.50;;;10.80;;
4748;SDS011;2388;53.582;9.962;2023-01-25T06:00:45;16.93;;;10.70;;
4748;SDS011;2388;53.582;9.962;2023-01-25T06:03:10;17.23;;;11.87;;
4748;SDS011;2388;53.582;9.962;2023-01-25T06:05:36;14.77;;;10.43;;
4748;SDS011;2388;53.582;9.962;2023-01-25T06:08:01;17.10;;;10.40;;
4748;SDS011;2388;53.582;9.962;2023-01-25T06:10:27;16.30;;;11.20;;
4748;SDS011;2388;53.582;9.962;2023-01-25T06:12:58;17.20;;;11.60;;
4748;SDS011;2388;53.582;9.962;2023-01-25T06:15:24;15.90;;;11.20;;
4748;SDS011;2388;53.582;9.962;2023-01-25T06:17:53;17.57;;;11.60;;
4748;SDS011;2388;53.582;9.962;2023-01-25T06:20:19;19.27;;;10.30;;
4748;SDS011;2388;53.582;9.962;2023-01-25T06:22:49;16.70;;;11.00;;
4748;SDS011;2388;53.582;9.962;2023-01-25T06:25:14;16.33;;;10.52;;
4748;SDS011;2388;53.582;9.962;2023-01-25T06:27:40;15.50;;;10.77;;
4748;SDS011;2388;53.582;9.962;2023-01-25T06:30:06;17.03;;;10.40;;
4748;SDS011;2388;53.582;9.962;2023-01-25T06:32:32;15.10;;;9.98;;
4748;SDS011;2388;53.582;9.962;2023-01-25T06:34:57;14.67;;;10.27;;
4748;SDS011;2388;53.582;9.962;2023-01-25T06:37:23;13.47;;;9.93;;
4748;SDS011;2388;53.582;9.962;2023-01-25T06:39:48;13.87;;;9.50;;
4748;SDS011;2388;53.582;9.962;2023-01-25T06:42:14;17.90;;;9.73;;
4748;SDS011;2388;53.582;9.962;2023-01-25T06:44:39;13.13;;;9.40;;
4748;SDS011;2388;53.582;9.962;2023-01-25T06:47:07;20.33;;;10.80;;
4748;SDS011;2388;53.582;9.962;2023-01-25T06:49:33;15.90;;;11.02;;
4748;SDS011;2388;53.582;9.962;2023-01-25T06:51:58;14.23;;;9.80;;
4748;SDS011;2388;53.582;9.962;2023-01-25T06:54:25;14.57;;;10.90;;
4748;SDS011;2388;53.582;9.962;2023-01-25T06:56:51;15.70;;;9.87;;
4748;SDS011;2388;53.582;9.962;2023-01-25T06:59:16;14.67;;;10.00;;
4748;SDS011;2388;53.582;9.962;2023-01-25T07:01:41;13.93;;;10.07;;
4748;SDS011;2388;53.582;9.962;2023-01-25T07:04:07;12.93;;;9.27;;
4748;SDS011;2388;53.582;9.962;2023-01-25T07:06:35;14.15;;;9.63;;
4748;SDS011;2388;53.582;9.962;2023-01-25T07:09:05;14.27;;;9.90;;
4748;SDS011;2388;53.582;9.962;2023-01-25T07:11:35;16.35;;;11.80;;
4748;SDS011;2388;53.582;9.962;2023-01-25T07:14:02;15.07;;;10.85;;
4748;SDS011;2388;53.582;9.962;2023-01-25T07:16:27;15.05;;;10.05;;
4748;SDS011;2388;53.582;9.962;2023-01-25T07:18:53;15.70;;;10.17;;
4748;SDS011;2388;53.582;9.962;2023-01-25T07:21:20;13.30;;;10.17;;
4748;SDS011;2388;53.582;9.962;2023-01-25T07:23:49;13.77;;;9.48;;
4748;SDS011;2388;53.582;9.962;2023-01-25T07:26:20;15.68;;;10.40;;
4748;SDS011;2388;53.582;9.962;2023-01-25T07:28:47;16.40;;;10.43;;
4748;SDS011;2388;53.582;9.962;2023-01-25T07:31:13;13.18;;;10.23;;
4748;SDS011;2388;53.582;9.962;2023-01-25T07:33:40;16.85;;;10.50;;
4748;SDS011;2388;53.582;9.962;2023-01-25T07:36:06;15.37;;;10.63;;
4748;SDS011;2388;53.582;9.962;2023-01-25T07:38:33;17.38;;;11.27;;
4748;SDS011;2388;53.582;9.962;2023-01-25T07:40:59;16.10;;;11.20;;
4748;SDS011;2388;53.582;9.962;2023-01-25T07:43:25;18.37;;;11.20;;
4748;SDS011;2388;53.582;9.962;2023-01-25T07:45:51;20.20;;;10.48;;
4748;SDS011;2388;53.582;9.962;2023-01-25T07:48:18;17.57;;;12.23;;
4748;SDS011;2388;53.582;9.962;2023-01-25T07:50:44;15.45;;;11.07;;
4748;SDS011;2388;53.582;9.962;2023-01-25T07:53:11;15.05;;;10.55;;
4748;SDS011;2388;53.582;9.962;2023-01-25T07:55:37;16.33;;;11.55;;
4748;SDS011;2388;53.582;9.962;2023-01-25T07:58:03;17.57;;;11.73;;
4748;SDS011;2388;53.582;9.962;2023-01-25T08:00:29;16.50;;;11.93;;
4748;SDS011;2388;53.582;9.962;2023-01-25T08:02:54;16.70;;;10.90;;
4748;SDS011;2388;53.582;9.962;2023-01-25T08:05:20;22.50;;;12.57;;
4748;SDS011;2388;53.582;9.962;2023-01-25T08:07:45;19.23;;;12.00;;
4748;SDS011;2388;53.582;9.962;2023-01-25T08:10:11;18.80;;;12.57;;
4748;SDS011;2388;53.582;9.962;2023-01-25T08:12:36;17.23;;;10.40;;
4748;SDS011;2388;53.582;9.962;2023-01-25T08:15:02;20.37;;;12.40;;
4748;SDS011;2388;53.582;9.962;2023-01-25T08:17:28;20.10;;;11.75;;
4748;SDS011;2388;53.582;9.962;2023-01-25T08:19:58;18.52;;;12.75;;
4748;SDS011;2388;53.582;9.962;2023-01-25T08:22:24;21.00;;;11.82;;
4748;SDS011;2388;53.582;9.962;2023-01-25T08:24:50;21.83;;;13.20;;
4748;SDS011;2388;53.582;9.962;2023-01-25T08:27:16;20.87;;;13.27;;
4748;SDS011;2388;53.582;9.962;2023-01-25T08:29:41;18.20;;;12.97;;
4748;SDS011;2388;53.582;9.962;2023-01-25T08:32:07;18.13;;;12.67;;
4748;SDS011;2388;53.582;9.962;2023-01-25T08:34:32;22.80;;;12.73;;
4748;SDS011;2388;53.582;9.962;2023-01-25T08:36:58;17.05;;;11.80;;
4748;SDS011;2388;53.582;9.962;2023-01-25T08:39:24;16.03;;;11.40;;
4748;SDS011;2388;53.582;9.962;2023-01-25T08:41:50;21.00;;;13.33;;
4748;SDS011;2388;53.582;9.962;2023-01-25T08:44:15;25.63;;;11.70;;
4748;SDS011;2388;53.582;9.962;2023-01-25T08:46:46;21.30;;;12.02;;
4748;SDS011;2388;53.582;9.962;2023-01-25T08:49:11;16.00;;;11.83;;
4748;SDS011;2388;53.582;9.962;2023-01-25T08:51:37;20.37;;;13.33;;
4748;SDS011;2388;53.582;9.962;2023-01-25T08:54:03;20.20;;;13.83;;
4748;SDS011;2388;53.582;9.962;2023-01-25T08:56:30;21.10;;;12.95;;
4748;SDS011;2388;53.582;9.962;2023-01-25T08:58:55;19.37;;;13.20;;
4748;SDS011;2388;53.582;9.962;2023-01-25T09:01:21;19.33;;;13.60;;
4748;SDS011;2388;53.582;9.962;2023-01-25T09:03:48;24.10;;;13.30;;
4748;SDS011;2388;53.582;9.962;2023-01-25T09:06:14;22.00;;;14.45;;
4748;SDS011;2388;53.582;9.962;2023-01-25T09:08:40;16.98;;;12.25;;
4748;SDS011;2388;53.582;9.962;2023-01-25T09:11:07;20.33;;;13.43;;
4748;SDS011;2388;53.582;9.962;2023-01-25T09:13:34;21.48;;;13.85;;
4748;SDS011;2388;53.582;9.962;2023-01-25T09:16:04;21.20;;;13.57;;
4748;SDS011;2388;53.582;9.962;2023-01-25T09:18:32;23.73;;;13.65;;
4748;SDS011;2388;53.582;9.962;2023-01-25T09:21:04;22.23;;;13.38;;
4748;SDS011;2388;53.582;9.962;2023-01-25T09:23:30;20.27;;;13.50;;
4748;SDS011;2388;53.582;9.962;2023-01-25T09:25:56;26.27;;;14.07;;
4748;SDS011;2388;53.582;9.962;2023-01-25T09:28:26;21.63;;;12.75;;
4748;SDS011;2388;53.582;9.962;2023-01-25T09:30:54;21.17;;;14.02;;
4748;SDS011;2388;53.582;9.962;2023-01-25T09:33:23;24.48;;;13.85;;
4748;SDS011;2388;53.582;9.962;2023-01-25T09:35:49;20.95;;;12.88;;
4748;SDS011;2388;53.582;9.962;2023-01-25T09:38:15;21.90;;;14.17;;
4748;SDS011;2388;53.582;9.962;2023-01-25T09:40:41;25.03;;;13.80;;
4748;SDS011;2388;53.582;9.962;2023-01-25T09:43:21;21.88;;;12.85;;
4748;SDS011;2388;53.582;9.962;2023-01-25T09:46:00;24.20;;;13.85;;
4748;SDS011;2388;53.582;9.962;2023-01-25T09:48:43;27.77;;;15.32;;
4748;SDS011;2388;53.582;9.962;2023-01-25T09:51:28;26.25;;;14.63;;
4748;SDS011;2388;53.582;9.962;2023-01-25T09:54:11;26.40;;;15.75;;
4748;SDS011;2388;53.582;9.962;2023-01-25T09:56:40;28.20;;;15.30;;
4748;SDS011;2388;53.582;9.962;2023-01-25T09:59:13;25.60;;;15.07;;
4748;SDS011;2388;53.582;9.962;2023-01-25T10:04:21;25.75;;;15.80;;
4748;SDS011;2388;53.582;9.962;2023-01-25T10:07:19;29.95;;;16.33;;
4748;SDS011;2388;53.582;9.962;2023-01-25T10:09:51;32.17;;;18.30;;
4748;SDS011;2388;53.582;9.962;2023-01-25T10:12:20;30.98;;;17.02;;
4748;SDS011;2388;53.582;9.962;2023-01-25T10:14:47;33.67;;;17.70;;
4748;SDS011;2388;53.582;9.962;2023-01-25T10:22:39;32.15;;;18.05;;
4748;SDS011;2388;53.582;9.962;2023-01-25T10:25:33;36.85;;;18.33;;
4748;SDS011;2388;53.582;9.962;2023-01-25T10:31:19;33.08;;;20.27;;
4748;SDS011;2388;53.582;9.962;2023-01-25T10:33:53;37.20;;;19.52;;
4748;SDS011;2388;53.582;9.962;2023-01-25T10:36:20;35.88;;;19.05;;
4748;SDS011;2388;53.582;9.962;2023-01-25T10:38:53;39.03;;;20.70;;
4748;SDS011;2388;53.582;9.962;2023-01-25T10:41:28;37.45;;;21.10;;
4748;SDS011;2388;53.582;9.962;2023-01-25T10:44:01;33.33;;;20.02;;
4748;SDS011;2388;53.582;9.962;2023-01-25T10:46:57;57.33;;;20.52;;
4748;SDS011;2388;53.582;9.962;2023-01-25T10:49:35;34.78;;;20.10;;
4748;SDS011;2388;53.582;9.962;2023-01-25T10:52:26;43.08;;;19.75;;
4748;SDS011;2388;53.582;9.962;2023-01-25T10:55:05;35.55;;;21.75;;
4748;SDS011;2388;53.582;9.962;2023-01-25T10:57:38;33.00;;;18.50;;
4748;SDS011;2388;53.582;9.962;2023-01-25T11:00:19;36.15;;;20.63;;
4748;SDS011;2388;53.582;9.962;2023-01-25T11:02:57;35.30;;;20.52;;
4748;SDS011;2388;53.582;9.962;2023-01-25T11:07:53;33.63;;;19.85;;
4748;SDS011;2388;53.582;9.962;2023-01-25T11:10:29;34.72;;;19.73;;
4748;SDS011;2388;53.582;9.962;2023-01-25T11:15:43;31.52;;;19.67;;
4748;SDS011;2388;53.582;9.962;2023-01-25T11:21:19;34.92;;;20.38;;
4748;SDS011;2388;53.582;9.962;2023-01-25T11:24:11;29.77;;;19.13;;
4748;SDS011;2388;53.582;9.962;2023-01-25T11:26:41;33.10;;;20.02;;
4748;SDS011;2388;53.582;9.962;2023-01-25T11:29:10;36.57;;;18.87;;
4748;SDS011;2388;53.582;9.962;2023-01-25T11:31:45;35.25;;;19.13;;
4748;SDS011;2388;53.582;9.962;2023-01-25T11:34:14;31.27;;;19.10;;
4748;SDS011;2388;53.582;9.962;2023-01-25T11:36:50;31.70;;;18.30;;
4748;SDS011;2388;53.582;9.962;2023-01-25T11:42:30;33.15;;;18.35;;
4748;SDS011;2388;53.582;9.962;2023-01-25T11:53:12;30.65;;;18.17;;
4748;SDS011;2388;53.582;9.962;2023-01-25T12:01:20;32.70;;;18.65;;
4748;SDS011;2388;53.582;9.962;2023-01-25T12:06:55;29.30;;;17.60;;
4748;SDS011;2388;53.582;9.962;2023-01-25T12:09:35;30.83;;;18.35;;
4748;SDS011;2388;53.582;9.962;2023-01-25T12:21:02;35.45;;;17.40;;
4748;SDS011;2388;53.582;9.962;2023-01-25T12:23:47;25.30;;;15.43;;
4748;SDS011;2388;53.582;9.962;2023-01-25T12:29:17;31.20;;;15.90;;
4748;SDS011;2388;53.582;9.962;2023-01-25T12:32:12;26.73;;;15.13;;
4748;SDS011;2388;53.582;9.962;2023-01-25T12:34:45;30.30;;;16.15;;
4748;SDS011;2388;53.582;9.962;2023-01-25T12:37:31;26.27;;;15.48;;
4748;SDS011;2388;53.582;9.962;2023-01-25T12:40:02;27.25;;;14.88;;
4748;SDS011;2388;53.582;9.962;2023-01-25T12:42:42;25.13;;;16.23;;
4748;SDS011;2388;53.582;9.962;2023-01-25T12:45:17;27.60;;;15.85;;
4748;SDS011;2388;53.582;9.962;2023-01-25T12:47:50;26.98;;;17.00;;
4748;SDS011;2388;53.582;9.962;2023-01-25T12:50:27;27.13;;;16.63;;
4748;SDS011;2388;53.582;9.962;2023-01-25T12:53:08;26.73;;;16.33;;
4748;SDS011;2388;53.582;9.962;2023-01-25T12:55:39;28.02;;;15.70;;
4748;SDS011;2388;53.582;9.962;2023-01-25T13:01:05;24.23;;;15.20;;
4748;SDS011;2388;53.582;9.962;2023-01-25T13:09:39;23.55;;;15.05;;
4748;SDS011;2388;53.582;9.962;2023-01-25T13:12:17;23.27;;;14.57;;
4748;SDS011;2388;53.582;9.962;2023-01-25T13:14:43;23.47;;;14.80;;
4748;SDS011;2388;53.582;9.962;2023-01-25T13:19:52;24.42;;;14.60;;
4748;SDS011;2388;53.582;9.962;2023-01-25T13:23:03;24.67;;;15.70;;
4748;SDS011;2388;53.582;9.962;2023-01-25T13:25:07;27.90;;;16.33;;
4748;SDS011;2388;53.582;9.962;2023-01-25T13:27:46;25.65;;;15.38;;
4748;SDS011;2388;53.582;9.962;2023-01-25T13:35:28;29.27;;;16.80;;
4748;SDS011;2388;53.582;9.962;2023-01-25T13:41:05;27.20;;;16.58;;
4748;SDS011;2388;53.582;9.962;2023-01-25T13:43:36;23.67;;;15.57;;
4748;SDS011;2388;53.582;9.962;2023-01-25T13:46:03;26.58;;;16.05;;
4748;SDS011;2388;53.582;9.962;2023-01-25T13:48:31;25.17;;;16.08;;
4748;SDS011;2388;53.582;9.962;2023-01-25T13:51:02;24.92;;;15.55;;
4748;SDS011;2388;53.582;9.962;2023-01-25T13:53:32;32.95;;;16.42;;
4748;SDS011;2388;53.582;9.962;2023-01-25T13:55:59;22.95;;;15.27;;
4748;SDS011;2388;53.582;9.962;2023-01-25T14:00:59;28.80;;;17.55;;
4748;SDS011;2388;53.582;9.962;2023-01-25T14:03:29;30.73;;;17.77;;
4748;SDS011;2388;53.582;9.962;2023-01-25T14:06:05;26.75;;;15.85;;
4748;SDS011;2388;53.582;9.962;2023-01-25T14:08:38;30.67;;;18.00;;
4748;SDS011;2388;53.582;9.962;2023-01-25T14:11:04;27.80;;;17.73;;
4748;SDS011;2388;53.582;9.962;2023-01-25T14:13:30;30.52;;;19.45;;
4748;SDS011;2388;53.582;9.962;2023-01-25T14:18:32;32.55;;;18.08;;
4748;SDS011;2388;53.582;9.962;2023-01-25T14:21:09;29.05;;;17.73;;
4748;SDS011;2388;53.582;9.962;2023-01-25T14:23:38;34.67;;;18.13;;
4748;SDS011;2388;53.582;9.962;2023-01-25T14:26:10;30.20;;;17.20;;
4748;SDS011;2388;53.582;9.962;2023-01-25T14:28:45;33.75;;;18.20;;
4748;SDS011;2388;53.582;9.962;2023-01-25T14:31:17;34.42;;;19.80;;
4748;SDS011;2388;53.582;9.962;2023-01-25T14:33:45;31.65;;;18.10;;
4748;SDS011;2388;53.582;9.962;2023-01-25T14:36:18;35.03;;;19.20;;
4748;SDS011;2388;53.582;9.962;2023-01-25T14:38:45;38.70;;;20.88;;
4748;SDS011;2388;53.582;9.962;2023-01-25T14:41:24;36.40;;;21.47;;
4748;SDS011;2388;53.582;9.962;2023-01-25T14:43:55;37.33;;;20.83;;
4748;SDS011;2388;53.582;9.962;2023-01-25T14:46:27;41.22;;;22.02;;
4748;SDS011;2388;53.582;9.962;2023-01-25T14:49:16;55.47;;;28.30;;
4748;SDS011;2388;53.582;9.962;2023-01-25T14:51:55;42.38;;;21.08;;
4748;SDS011;2388;53.582;9.962;2023-01-25T14:54:26;42.20;;;21.55;;
4748;SDS011;2388;53.582;9.962;2023-01-25T14:56:57;35.75;;;20.90;;
4748;SDS011;2388;53.582;9.962;2023-01-25T14:59:35;36.83;;;20.23;;
4748;SDS011;2388;53.582;9.962;2023-01-25T15:04:49;41.65;;;22.15;;
4748;SDS011;2388;53.582;9.962;2023-01-25T15:07:32;36.92;;;20.83;;
4748;SDS011;2388;53.582;9.962;2023-01-25T15:10:48;38.83;;;20.92;;
4748;SDS011;2388;53.582;9.962;2023-01-25T15:15:57;42.35;;;22.13;;
4748;SDS011;2388;53.582;9.962;2023-01-25T15:21:13;42.35;;;22.00;;
4748;SDS011;2388;53.582;9.962;2023-01-25T15:23:41;47.53;;;22.10;;
4748;SDS011;2388;53.582;9.962;2023-01-25T15:26:50;36.25;;;20.75;;
4748;SDS011;2388;53.582;9.962;2023-01-25T15:28:58;39.10;;;21.27;;
4748;SDS011;2388;53.582;9.962;2023-01-25T15:31:32;38.10;;;20.05;;
4748;SDS011;2388;53.582;9.962;2023-01-25T15:34:00;37.17;;;19.88;;
4748;SDS011;2388;53.582;9.962;2023-01-25T15:36:27;42.45;;;21.13;;
4748;SDS011;2388;53.582;9.962;2023-01-25T15:38:53;38.53;;;19.73;;
4748;SDS011;2388;53.582;9.962;2023-01-25T15:41:19;41.83;;;21.20;;
4748;SDS011;2388;53.582;9.962;2023-01-25T15:43:45;35.70;;;19.53;;
4748;SDS011;2388;53.582;9.962;2023-01-25T15:46:21;35.67;;;20.40;;
4748;SDS011;2388;53.582;9.962;2023-01-25T15:48:49;38.38;;;18.95;;
4748;SDS011;2388;53.582;9.962;2023-01-25T15:51:15;35.80;;;18.27;;
4748;SDS011;2388;53.582;9.962;2023-01-25T15:53:42;36.72;;;18.33;;
4748;SDS011;2388;53.582;9.962;2023-01-25T15:56:21;34.13;;;18.27;;
4748;SDS011;2388;53.582;9.962;2023-01-25T15:58:52;32.30;;;17.67;;
4748;SDS011;2388;53.582;9.962;2023-01-25T16:01:20;34.10;;;16.95;;
4748;SDS011;2388;53.582;9.962;2023-01-25T16:03:50;34.45;;;16.73;;
4748;SDS011;2388;53.582;9.962;2023-01-25T16:09:04;33.67;;;16.95;;
4748;SDS011;2388;53.582;9.962;2023-01-25T16:11:46;36.17;;;19.73;;
4748;SDS011;2388;53.582;9.962;2023-01-25T16:14:15;33.42;;;16.42;;
4748;SDS011;2388;53.582;9.962;2023-01-25T16:16:45;32.40;;;16.98;;
4748;SDS011;2388;53.582;9.962;2023-01-25T16:19:14;28.27;;;16.83;;
4748;SDS011;2388;53.582;9.962;2023-01-25T16:21:43;37.95;;;18.67;;
4748;SDS011;2388;53.582;9.962;2023-01-25T16:24:09;37.87;;;18.57;;
4748;SDS011;2388;53.582;9.962;2023-01-25T16:26:36;31.67;;;15.77;;
4748;SDS011;2388;53.582;9.962;2023-01-25T16:29:04;34.03;;;17.10;;
4748;SDS011;2388;53.582;9.962;2023-01-25T16:31:30;29.90;;;16.23;;
4748;SDS011;2388;53.582;9.962;2023-01-25T16:33:55;32.00;;;16.37;;
4748;SDS011;2388;53.582;9.962;2023-01-25T16:36:22;30.07;;;15.60;;